^^
Datos históricos de la estación: Murcia-Puente Tocinos
Diario Informe para Enero 6, 2019 Unidades:  Métrico    Ingés   Ambas
Diario Semanal Mensual Anual
  Máxima: Mínima: Promedio:
Temperatura: 26.7 °C 17.2 °C 22.7 °C
Punto de rocio: 16.2 °C 2.3 °C 8.4 °C
Humedad: 81% 25% 42%
Velocidad viento: 21.7km/h 0km/h 9.8km/h
Racha viento: 38.9km/h - -
Viento- - SE
Presión: 1012.3 hPa 1007.9 hPa -
Precipitación: 0.0 mm    
 
 
Tabla de datos para Enero 6, 2019
Hora Temperatura Punto de rocio Presión Viento Velocidad viento Racha viento Humedad Intensidad lluvia(por hora) Nubes
00:04 23.7 °C 2.5 °C 1011.2 hPa Oeste 2.2 km/h 5.8 km/h 25% 0.0 mm
00:09 23.7 °C 2.5 °C 1011.2 hPa Oeste 2.6 km/h 7.4 km/h 25% 0.0 mm
00:14 23.7 °C 2.4 °C 1011.2 hPa Oeste 3.2 km/h 8 km/h 25% 0.0 mm
00:19 23.6 °C 2.4 °C 1011.3 hPa Oeste 3.2 km/h 6.4 km/h 25% 0.0 mm
00:24 23.5 °C 2.3 °C 1011.3 hPa Oeste 3.2 km/h 3.9 km/h 25% 0.0 mm
00:29 23.4 °C 3.2 °C 1011.3 hPa Oeste 2 km/h 6.9 km/h 26.8% 0.0 mm
00:34 23.3 °C 3.7 °C 1011.3 hPa Calm   8 km/h 27.9% 0.0 mm
00:39 23.2 °C 3.7 °C 1011.3 hPa Sur 1.5 km/h 8 km/h 28% 0.0 mm
00:44 23.1 °C 3.6 °C 1011.3 hPa Sur 3.9 km/h 6.4 km/h 27.9% 0.0 mm
00:49 23.1 °C 3.6 °C 1011.4 hPa Sur 3.3 km/h 3.9 km/h 28% 0.0 mm
00:54 23 °C 3.4 °C 1011.4 hPa Sur 2.2 km/h 3.7 km/h 27.8% 0.0 mm
00:59 22.9 °C 3.5 °C 1011.4 hPa Sur 1.6 km/h 3.7 km/h 28.3% 0.0 mm
01:04 22.9 °C 3.1 °C 1011.4 hPa Calm   5.6 km/h 27.4% 0.0 mm
01:09 22.8 °C 3.1 °C 1011.4 hPa Oeste 1.2 km/h 7.4 km/h 27.5% 0.0 mm
01:14 22.7 °C 3.1 °C 1011.4 hPa Oeste 3.2 km/h 8 km/h 27.9% 0.0 mm
01:19 22.4 °C 3 °C 1011.4 hPa Oeste 3.5 km/h 8 km/h 28% 0.0 mm
01:24 22.3 °C 2.9 °C 1011.4 hPa Oeste 3.9 km/h 6.4 km/h 28% 0.0 mm
01:29 22.2 °C 3.3 °C 1011.4 hPa Oeste 3.5 km/h 5.6 km/h 28.9% 0.0 mm
01:34 22.2 °C 3.4 °C 1011.4 hPa Oeste 2.9 km/h 5.8 km/h 29.2% 0.0 mm
01:39 22.2 °C 4.2 °C 1011.4 hPa ESE 3 km/h 8 km/h 30.9% 0.0 mm
01:44 22.1 °C 4.4 °C 1011.4 hPa SE 3.2 km/h 10.3 km/h 31.6% 0.0 mm
01:49 21.8 °C 4.4 °C 1011.6 hPa SE 3.9 km/h 11.3 km/h 32.2% 0.0 mm
01:54 21.5 °C 4.3 °C 1011.6 hPa Sur 5 km/h 8.4 km/h 32.5% 0.0 mm
01:59 21.2 °C 3.8 °C 1011.6 hPa SSO 5.3 km/h 10 km/h 31.8% 0.0 mm
02:04 21.3 °C 3.5 °C 1011.6 hPa SSO 5.8 km/h 9.7 km/h 31% 0.0 mm
02:09 21.3 °C 3.5 °C 1011.5 hPa SSO 5.8 km/h 9.7 km/h 31% 0.0 mm
02:14 21.4 °C 3.6 °C 1011.5 hPa SO 5.8 km/h 9.7 km/h 31% 0.0 mm
02:19 21.5 °C 3.5 °C 1011.5 hPa SSO 5.5 km/h 9.7 km/h 30.6% 0.0 mm
02:24 21.5 °C 3.2 °C 1011.3 hPa SO 5 km/h 9.3 km/h 30% 0.0 mm
02:29 21.5 °C 3.1 °C 1011.3 hPa SSO 5 km/h 9.7 km/h 30% 0.0 mm
02:34 21.4 °C 3.1 °C 1011.3 hPa SSO 5 km/h 9.7 km/h 30% 0.0 mm
02:39 21.3 °C 3.1 °C 1011.3 hPa SSO 5.3 km/h 11.1 km/h 30% 0.0 mm
02:44 21.3 °C 3 °C 1011.3 hPa Sur 5.8 km/h 11.3 km/h 30% 0.0 mm
02:49 21.2 °C 3 °C 1011.3 hPa Sur 5.5 km/h 9.5 km/h 30.1% 0.0 mm
02:54 21 °C 3.2 °C 1011.3 hPa SSO 5 km/h 9.7 km/h 31% 0.0 mm
02:59 20.8 °C 3.1 °C 1011.3 hPa SSO 5.3 km/h 9.7 km/h 31.1% 0.0 mm
03:04 20.7 °C 3.4 °C 1011.5 hPa SSO 5.8 km/h 9.7 km/h 32% 0.0 mm
03:09 20.6 °C 3.3 °C 1011.5 hPa SSO 5.8 km/h 9.7 km/h 32% 0.0 mm
03:14 20.4 °C 3.5 °C 1011.5 hPa SSO 5.8 km/h 9.5 km/h 32.8% 0.0 mm
03:19 20.3 °C 3.5 °C 1011.5 hPa Sur 6 km/h 9.7 km/h 33% 0.0 mm
03:24 20.2 °C 3.4 °C 1011.5 hPa Sur 6.5 km/h 11.1 km/h 33% 0.0 mm
03:29 20.1 °C 3.3 °C 1011.5 hPa Sur 6.2 km/h 11.3 km/h 33% 0.0 mm
03:34 19.9 °C 3.2 °C 1011.5 hPa SSO 5.8 km/h 9.7 km/h 33.1% 0.0 mm
03:39 19.9 °C 3.4 °C 1011.5 hPa SSO 5.8 km/h 10 km/h 33.6% 0.0 mm
03:44 19.9 °C 3.1 °C 1011.5 hPa SO 5.8 km/h 9.7 km/h 33% 0.0 mm
03:49 19.9 °C 3.2 °C 1011.5 hPa SO 6 km/h 13 km/h 33% 0.0 mm
03:54 20 °C 3.2 °C 1011.3 hPa SO 6.5 km/h 12.9 km/h 33% 0.0 mm
03:59 20.1 °C 3.3 °C 1011.3 hPa SO 6.5 km/h 11.1 km/h 33% 0.0 mm
04:04 20 °C 3.2 °C 1011.3 hPa SO 6.5 km/h 11.3 km/h 33% 0.0 mm
04:09 20 °C 3 °C 1011.3 hPa OSO 6.9 km/h 13 km/h 32.5% 0.0 mm
04:14 20.1 °C 2.9 °C 1011.3 hPa SO 7.6 km/h 16.1 km/h 32% 0.0 mm
04:19 20.2 °C 2.9 °C 1011.3 hPa SO 8.3 km/h 16.1 km/h 32% 0.0 mm
04:24 20.2 °C 2.9 °C 1011.2 hPa SO 9.5 km/h 14.5 km/h 32% 0.0 mm
04:29 20.1 °C 2.9 °C 1011.2 hPa SO 9.2 km/h 13 km/h 32% 0.0 mm
04:34 20 °C 2.8 °C 1011.3 hPa SO 8.7 km/h 13.7 km/h 32.1% 0.0 mm
04:39 19.9 °C 3 °C 1011.3 hPa SO 8.6 km/h 14.5 km/h 32.8% 0.0 mm
04:44 19.9 °C 3.1 °C 1011.3 hPa SO 8.4 km/h 12.9 km/h 33% 0.0 mm
04:49 19.8 °C 3 °C 1011.3 hPa SO 7.4 km/h 11.3 km/h 32.9% 0.0 mm
04:54 19.8 °C 3 °C 1011.3 hPa OSO 5.8 km/h 9.7 km/h 33% 0.0 mm
04:59 19.7 °C 2.9 °C 1011.3 hPa SO 5.8 km/h 11.1 km/h 33% 0.0 mm
05:04 19.5 °C 2.8 °C 1011.4 hPa SO 5.8 km/h 11.3 km/h 33% 0.0 mm
05:09 19.4 °C 2.8 °C 1011.4 hPa OSO 6 km/h 9.7 km/h 33.1% 0.0 mm
05:14 19.4 °C 2.9 °C 1011.4 hPa SO 6.5 km/h 11.1 km/h 33.6% 0.0 mm
05:19 19.3 °C 3.1 °C 1011.4 hPa SO 6.9 km/h 11.9 km/h 34% 0.0 mm
05:24 19.2 °C 3 °C 1011.4 hPa OSO 7.6 km/h 11.3 km/h 34% 0.0 mm
05:29 19.2 °C 2.9 °C 1011.4 hPa OSO 7.3 km/h 11.3 km/h 34% 0.0 mm
05:34 19.1 °C 2.8 °C 1011.4 hPa OSO 6.9 km/h 11.3 km/h 34% 0.0 mm
05:39 19.1 °C 2.8 °C 1011.3 hPa SO 6.9 km/h 11.1 km/h 34% 0.0 mm
05:44 19 °C 2.6 °C 1011.3 hPa OSO 6.9 km/h 13 km/h 33.5% 0.0 mm
05:49 18.9 °C 2.6 °C 1011.5 hPa OSO 6.9 km/h 12.9 km/h 33.8% 0.0 mm
05:54 18.9 °C 2.7 °C 1011.5 hPa Oeste 6.9 km/h 11.3 km/h 34% 0.0 mm
05:59 18.8 °C 2.3 °C 1011.5 hPa Oeste 6.1 km/h 11.1 km/h 33.4% 0.0 mm
06:04 18.7 °C 2.3 °C 1011.5 hPa SO 5 km/h 11.3 km/h 33.4% 0.0 mm
06:09 18.7 °C 2.5 °C 1011.5 hPa OSO 5 km/h 8.4 km/h 33.9% 0.0 mm
06:14 18.7 °C 2.5 °C 1011.5 hPa OSO 5 km/h 9.5 km/h 34% 0.0 mm
06:19 18.7 °C 2.5 °C 1011.5 hPa Oeste 5 km/h 9.7 km/h 34% 0.0 mm
06:24 18.6 °C 2.8 °C 1011.4 hPa Oeste 5 km/h 9.7 km/h 34.9% 0.0 mm
06:29 18.4 °C 2.7 °C 1011.4 hPa OSO 5 km/h 8 km/h 35% 0.0 mm
06:34 18.3 °C 2.6 °C 1011.6 hPa OSO 5 km/h 8 km/h 35% 0.0 mm
06:39 18.3 °C 3 °C 1011.6 hPa OSO 4.5 km/h 7.4 km/h 36.2% 0.0 mm
06:44 18.2 °C 3.9 °C 1011.6 hPa SE 3.9 km/h 8 km/h 38.8% 0.0 mm
06:49 18 °C 3.4 °C 1011.6 hPa SO 3.9 km/h 9.5 km/h 37.8% 0.0 mm
06:54 17.9 °C 3 °C 1011.5 hPa OSO 3.9 km/h 10 km/h 37.1% 0.0 mm
06:59 18 °C 2.9 °C 1011.5 hPa OSO 5.1 km/h 11.1 km/h 36.7% 0.0 mm
07:04 18.1 °C 3.1 °C 1011.7 hPa SO 6.9 km/h 11.3 km/h 36.9% 0.0 mm
07:09 18.1 °C 3.5 °C 1011.7 hPa SSO 6.1 km/h 9.7 km/h 37.9% 0.0 mm
07:14 18.1 °C 4.3 °C 1011.7 hPa SSE 4.7 km/h 8.4 km/h 40.1% 0.0 mm
07:19 17.8 °C 4.3 °C 1011.8 hPa SSE 5.1 km/h 8.7 km/h 41% 0.0 mm
07:24 17.5 °C 4.4 °C 1011.8 hPa SSE 5.8 km/h 8 km/h 41.9% 0.0 mm
07:29 17.3 °C 4.3 °C 1011.8 hPa Sur 5.4 km/h 8.4 km/h 42.1% 0.0 mm
07:34 17.2 °C 4.5 °C 1011.8 hPa Sur 4.7 km/h 8 km/h 42.9% 0.0 mm
07:39 17.3 °C 4.5 °C 1011.8 hPa Sur 4.7 km/h 8 km/h 42.5% 0.0 mm
07:44 17.4 °C 4.1 °C 1011.8 hPa Sur 4.7 km/h 8 km/h 41.3% 0.0 mm
07:49 17.7 °C 4 °C 1012.0 hPa SO 4.3 km/h 7.4 km/h 40.4% 0.0 mm
07:54 18 °C 3.8 °C 1012.0 hPa OSO 3.9 km/h 11.1 km/h 39% 0.0 mm
07:59 18.3 °C 3.6 °C 1012.0 hPa OSO 4.6 km/h 13 km/h 37.7% 0.0 mm
08:04 18.5 °C 3.5 °C 1012.1 hPa OSO 5.8 km/h 12.9 km/h 37% 0.0 mm
08:09 18.7 °C 3.7 °C 1012.1 hPa OSO 5.8 km/h 11.3 km/h 37% 0.0 mm
08:14 18.8 °C 3.7 °C 1012.1 hPa OSO 5.8 km/h 10.3 km/h 36.8% 0.0 mm
08:19 18.9 °C 3.5 °C 1012.1 hPa OSO 6 km/h 11.3 km/h 36.1% 0.0 mm
08:24 19.1 °C 3.5 °C 1012.1 hPa OSO 6.5 km/h 11.3 km/h 35.7% 0.0 mm
08:29 19.2 °C 3.3 °C 1012.1 hPa OSO 6.5 km/h 13 km/h 34.8% 0.0 mm
08:34 19.3 °C 3.1 °C 1012.1 hPa OSO 6.5 km/h 13 km/h 34% 0.0 mm
08:39 19.6 °C 3.2 °C 1012.1 hPa SO 6.6 km/h 14 km/h 33.8% 0.0 mm
08:44 19.8 °C 3 °C 1012.1 hPa SO 6.9 km/h 15.6 km/h 32.9% 0.0 mm
08:49 20.1 °C 2.8 °C 1012.2 hPa SO 7.5 km/h 16.1 km/h 31.9% 0.0 mm
08:54 20.2 °C 2.6 °C 1012.2 hPa SO 8.4 km/h 14.5 km/h 31.3% 0.0 mm
08:59 20.3 °C 2.9 °C 1012.2 hPa SO 8.8 km/h 14.8 km/h 31.5% 0.0 mm
09:04 20.5 °C 3 °C 1012.2 hPa SO 9.5 km/h 14.5 km/h 31.5% 0.0 mm
09:09 20.7 °C 3 °C 1012.2 hPa SO 9.1 km/h 14.8 km/h 31.1% 0.0 mm
09:14 20.8 °C 3.1 °C 1012.2 hPa SO 8.4 km/h 14.8 km/h 31% 0.0 mm
09:19 20.9 °C 3.1 °C 1012.2 hPa SO 8.1 km/h 14.8 km/h 31% 0.0 mm
09:24 20.9 °C 3.1 °C 1012.2 hPa SSO 7.6 km/h 14.5 km/h 31% 0.0 mm
09:29 21.1 °C 3.3 °C 1012.2 hPa OSO 7.9 km/h 12.9 km/h 31% 0.0 mm
09:34 21.2 °C 3 °C 1012.2 hPa OSO 8.4 km/h 16.7 km/h 30.2% 0.0 mm
09:39 21.2 °C 3.1 °C 1012.2 hPa OSO 8.5 km/h 16.7 km/h 30.2% 0.0 mm
09:44 21.2 °C 3.1 °C 1012.2 hPa SO 8.7 km/h 14.8 km/h 30.3% 0.0 mm
09:49 21.3 °C 3.1 °C 1012.3 hPa OSO 8.6 km/h 14.8 km/h 30% 0.0 mm
09:54 21.5 °C 3.2 °C 1012.3 hPa Oeste 8.4 km/h 12.9 km/h 30% 0.0 mm
09:59 21.8 °C 3.3 °C 1012.3 hPa OSO 6.2 km/h 9.5 km/h 29.8% 0.0 mm
10:04 22.1 °C 3.4 °C 1012.3 hPa ONO 3.2 km/h 9.7 km/h 29.4% 0.0 mm
10:09 22.3 °C 3.4 °C 1012.3 hPa ONO 3.8 km/h 10 km/h 28.9% 0.0 mm
10:14 22.6 °C 3.2 °C 1012.3 hPa ONO 4.7 km/h 10 km/h 28.2% 0.0 mm
10:19 22.7 °C 3.2 °C 1012.3 hPa Oeste 5.1 km/h 9.7 km/h 28% 0.0 mm
10:24 22.8 °C 3.3 °C 1012.2 hPa ONO 5.8 km/h 9.7 km/h 28% 0.0 mm
10:29 22.9 °C 3.4 °C 1012.2 hPa ONO 5.3 km/h 9.7 km/h 27.9% 0.0 mm
10:34 23 °C 3.5 °C 1012.2 hPa NO 4.7 km/h 9.7 km/h 28% 0.0 mm
10:39 23.2 °C 3.5 °C 1012.1 hPa ONO 4.7 km/h 8 km/h 27.7% 0.0 mm
10:44 23.4 °C 3.8 °C 1012.1 hPa NNE 4.7 km/h 8.4 km/h 27.9% 0.0 mm
10:49 23.6 °C 3.6 °C 1012.1 hPa North 4.6 km/h 8 km/h 27.2% 0.0 mm
10:54 23.8 °C 4.2 °C 1011.9 hPa ENE 4.7 km/h 7.4 km/h 28% 0.0 mm
10:59 24.1 °C 4.1 °C 1011.9 hPa NNO 4.3 km/h 8.4 km/h 27.3% 0.0 mm
11:04 24.3 °C 4.6 °C 1011.9 hPa Oeste 3.9 km/h 8.4 km/h 27.9% 0.0 mm
11:09 24.4 °C 4.7 °C 1011.8 hPa NNE 3.9 km/h 10 km/h 28% 0.0 mm
11:14 24.5 °C 4.6 °C 1011.8 hPa NE 3.9 km/h 11.9 km/h 27.6% 0.0 mm
11:19 24.6 °C 4.6 °C 1011.8 hPa NE 4.3 km/h 13 km/h 27.4% 0.0 mm
11:24 24.7 °C 4.5 °C 1011.7 hPa NE 5 km/h 13 km/h 27.1% 0.0 mm
11:29 24.7 °C 4.5 °C 1011.7 hPa NE 5.5 km/h 19 km/h 27.3% 0.0 mm
11:34 24.5 °C 4.9 °C 1011.7 hPa NNE 6.5 km/h 19.3 km/h 28.3% 0.0 mm
11:39 24.6 °C 5.1 °C 1011.6 hPa NE 7.2 km/h 17.2 km/h 28.5% 0.0 mm
11:44 24.6 °C 5.9 °C 1011.6 hPa NNE 8.4 km/h 17.7 km/h 29.9% 0.0 mm
11:49 24.7 °C 6.1 °C 1011.6 hPa NNE 8.5 km/h 18 km/h 30.3% 0.0 mm
11:54 24.9 °C 6.8 °C 1011.4 hPa NE 8.7 km/h 20.4 km/h 31.5% 0.0 mm
11:59 25.1 °C 7.5 °C 1011.4 hPa NNE 9.2 km/h 22.2 km/h 32.8% 0.0 mm
12:04 25.1 °C 7.9 °C 1011.4 hPa NE 10 km/h 22.5 km/h 33.5% 0.0 mm
12:09 25 °C 8.6 °C 1011.4 hPa NNE 10 km/h 17.7 km/h 35.3% 0.0 mm
12:14 25.2 °C 9.2 °C 1011.4 hPa North 10 km/h 22 km/h 36.3% 0.0 mm
12:19 25.3 °C 10 °C 1011.4 hPa ENE 9.8 km/h 22.5 km/h 38.3% 0.0 mm
12:24 25.3 °C 10.4 °C 1011.1 hPa NE 9.5 km/h 20.9 km/h 39% 0.0 mm
12:29 25.3 °C 11.4 °C 1011.1 hPa NE 10.4 km/h 20.9 km/h 42% 0.0 mm
12:34 25.3 °C 12.5 °C 1011.1 hPa Este 11.9 km/h 20.9 km/h 45% 0.0 mm
12:39 25.5 °C 13 °C 1011.0 hPa ENE 10.6 km/h 19 km/h 45.9% 0.0 mm
12:44 25.6 °C 13.3 °C 1011.0 hPa NE 8.4 km/h 20.4 km/h 46.5% 0.0 mm
12:49 25.7 °C 13.1 °C 1011.0 hPa NE 9 km/h 20.9 km/h 45.7% 0.0 mm
12:54 25.7 °C 12.9 °C 1011.0 hPa NE 10 km/h 24.1 km/h 44.9% 0.0 mm
12:59 25.7 °C 12.5 °C 1011.0 hPa NNE 12 km/h 26.2 km/h 43.9% 0.0 mm
13:04 25.9 °C 12.7 °C 1011.0 hPa ENE 14.8 km/h 25.7 km/h 44.1% 0.0 mm
13:09 26.3 °C 12.4 °C 1010.8 hPa ENE 13.7 km/h 29.6 km/h 42.2% 0.0 mm
13:14 26.3 °C 12.2 °C 1010.8 hPa NE 11.9 km/h 29 km/h 41.4% 0.0 mm
13:19 26.3 °C 10.7 °C 1010.8 hPa NE 13.3 km/h 24.1 km/h 37.7% 0.0 mm
13:24 26.3 °C 11.8 °C 1010.6 hPa NE 15.6 km/h 26.2 km/h 40.3% 0.0 mm
13:29 26.3 °C 11.7 °C 1010.6 hPa NE 15.6 km/h 29.6 km/h 40.3% 0.0 mm
13:34 26.2 °C 12.7 °C 1010.6 hPa NE 15.6 km/h 37 km/h 43.1% 0.0 mm
13:39 25.9 °C 12.9 °C 1010.6 hPa NE 17.6 km/h 37 km/h 44.4% 0.0 mm
13:44 26 °C 12.5 °C 1010.6 hPa NE 20.9 km/h 37 km/h 43.3% 0.0 mm
13:49 26.2 °C 12.5 °C 1010.6 hPa NE 19.1 km/h 30.6 km/h 42.7% 0.0 mm
13:54 26.2 °C 12.8 °C 1010.4 hPa NE 16.1 km/h 33.5 km/h 43.3% 0.0 mm
13:59 26.2 °C 11.8 °C 1010.4 hPa NE 17 km/h 35.9 km/h 40.8% 0.0 mm
14:04 26.3 °C 10.7 °C 1010.4 hPa NE 18.4 km/h 35.4 km/h 37.7% 0.0 mm
14:09 26.5 °C 10.4 °C 1010.4 hPa NE 18.4 km/h 35.4 km/h 36.5% 0.0 mm
14:14 26.4 °C 11.6 °C 1010.4 hPa NE 18.4 km/h 35.2 km/h 39.7% 0.0 mm
14:19 26.3 °C 11.9 °C 1010.4 hPa NE 18.4 km/h 35.4 km/h 40.7% 0.0 mm
14:24 26.3 °C 11.6 °C 1010.3 hPa NE 18.4 km/h 38.9 km/h 40.1% 0.0 mm
14:29 26.2 °C 11.9 °C 1010.3 hPa NE 19.3 km/h 38.6 km/h 41.1% 0.0 mm
14:34 26.2 °C 11.5 °C 1010.3 hPa NE 20.9 km/h 33.8 km/h 40% 0.0 mm
14:39 26.6 °C 11.8 °C 1010.1 hPa NE 19.9 km/h 33.8 km/h 39.8% 0.0 mm
14:44 26.5 °C 12.3 °C 1010.1 hPa NE 18.4 km/h 35.2 km/h 41.2% 0.0 mm
14:49 26.3 °C 12.5 °C 1010.1 hPa NE 19 km/h 35.4 km/h 42.5% 0.0 mm
14:54 26.3 °C 10.9 °C 1010.0 hPa NE 20.1 km/h 35.4 km/h 38.2% 0.0 mm
14:59 26.2 °C 13.2 °C 1010.0 hPa NE 20.1 km/h 37 km/h 44.8% 0.0 mm
15:04 26 °C 13.3 °C 1010.0 hPa NE 20.1 km/h 37 km/h 45.7% 0.0 mm
15:09 25.9 °C 12.8 °C 1009.9 hPa NE 20.7 km/h 37.8 km/h 44.3% 0.0 mm
15:14 26.1 °C 12.5 °C 1009.9 hPa ENE 21.7 km/h 37 km/h 42.9% 0.0 mm
15:19 26.2 °C 13.7 °C 1009.9 hPa NE 20.3 km/h 34.3 km/h 46.2% 0.0 mm
15:24 26.2 °C 13 °C 1009.7 hPa NE 18 km/h 35.2 km/h 44% 0.0 mm
15:29 26.2 °C 11.6 °C 1009.7 hPa NE 18.7 km/h 35.4 km/h 40.4% 0.0 mm
15:34 26.3 °C 11.1 °C 1009.8 hPa ENE 19.8 km/h 35.4 km/h 38.6% 0.0 mm
15:39 26.4 °C 10.9 °C 1009.8 hPa NE 18.6 km/h 37 km/h 37.9% 0.0 mm
15:44 26.2 °C 11.2 °C 1009.8 hPa NE 16.4 km/h 38.9 km/h 39.1% 0.0 mm
15:49 25.9 °C 13 °C 1009.8 hPa NE 17.8 km/h 38.6 km/h 44.8% 0.0 mm
15:54 25.8 °C 13 °C 1009.7 hPa ENE 20.1 km/h 30.6 km/h 45.3% 0.0 mm
15:59 26 °C 12.5 °C 1009.7 hPa ENE 18.5 km/h 31.7 km/h 43.3% 0.0 mm
16:04 26.2 °C 11.5 °C 1009.7 hPa NE 16.4 km/h 32.2 km/h 39.8% 0.0 mm
16:09 26.3 °C 11.1 °C 1009.6 hPa NE 16.3 km/h 30.6 km/h 38.7% 0.0 mm
16:14 26.4 °C 11.5 °C 1009.6 hPa ENE 16.1 km/h 29 km/h 39.5% 0.0 mm
16:19 26.3 °C 11.5 °C 1009.6 hPa NE 16.2 km/h 29.6 km/h 39.5% 0.0 mm
16:24 26.3 °C 11.6 °C 1009.4 hPa ENE 16.4 km/h 29 km/h 39.8% 0.0 mm
16:29 26.4 °C 11.5 °C 1009.4 hPa ENE 15.5 km/h 26.2 km/h 39.3% 0.0 mm
16:34 26.4 °C 11.6 °C 1009.4 hPa ENE 14 km/h 25.7 km/h 39.6% 0.0 mm
16:39 26.7 °C 11.5 °C 1009.2 hPa ENE 13.2 km/h 22.2 km/h 38.9% 0.0 mm
16:44 26.6 °C 11.6 °C 1009.2 hPa NE 11.9 km/h 26.2 km/h 39.3% 0.0 mm
16:49 26.4 °C 12 °C 1009.2 hPa NE 12.7 km/h 25.7 km/h 40.7% 0.0 mm
16:54 26.6 °C 12 °C 1009.2 hPa NE 14 km/h 22.5 km/h 40.3% 0.0 mm
16:59 26.6 °C 13.1 °C 1009.2 hPa NE 13.3 km/h 24.5 km/h 43.4% 0.0 mm
17:04 26.4 °C 13.1 °C 1009.2 hPa NE 12.2 km/h 24.1 km/h 43.9% 0.0 mm
17:09 26.5 °C 13.1 °C 1008.9 hPa NE 12.5 km/h 24.5 km/h 43.6% 0.0 mm
17:14 26.1 °C 14 °C 1008.9 hPa NE 13 km/h 29.8 km/h 47.1% 0.0 mm
17:19 26.1 °C 14.2 °C 1008.9 hPa NE 14.3 km/h 30.6 km/h 48% 0.0 mm
17:24 26.1 °C 14.4 °C 1008.8 hPa ENE 16.4 km/h 24.5 km/h 48.7% 0.0 mm
17:29 25.9 °C 14 °C 1008.8 hPa NE 14.7 km/h 25.9 km/h 47.7% 0.0 mm
17:34 25.9 °C 13.6 °C 1008.8 hPa ENE 11.9 km/h 25.7 km/h 46.5% 0.0 mm
17:39 26.1 °C 13.9 °C 1008.8 hPa NE 12 km/h 24.5 km/h 47% 0.0 mm
17:44 26.2 °C 13.6 °C 1008.8 hPa NE 12.2 km/h 28.2 km/h 46.1% 0.0 mm
17:49 26.1 °C 13.6 °C 1008.8 hPa ENE 12.9 km/h 27.4 km/h 46% 0.0 mm
17:54 26.2 °C 13.3 °C 1008.6 hPa ESE 14 km/h 22.5 km/h 44.8% 0.0 mm
17:59 26.3 °C 13 °C 1008.6 hPa Este 12.9 km/h 19.3 km/h 43.7% 0.0 mm
18:04 26.4 °C 12.9 °C 1008.6 hPa ESE 11.1 km/h 24.5 km/h 43.2% 0.0 mm
18:09 26.3 °C 13.2 °C 1008.5 hPa ESE 11.8 km/h 25.9 km/h 44.4% 0.0 mm
18:14 26.2 °C 13 °C 1008.5 hPa ESE 13 km/h 25.7 km/h 44% 0.0 mm
18:19 26.1 °C 12.7 °C 1008.5 hPa ESE 12.7 km/h 19.3 km/h 43.6% 0.0 mm
18:24 26.1 °C 13 °C 1008.3 hPa ESE 12.2 km/h 22.2 km/h 44.3% 0.0 mm
18:29 26.1 °C 12.8 °C 1008.3 hPa ESE 12.1 km/h 22.5 km/h 43.7% 0.0 mm
18:34 26.1 °C 12.7 °C 1008.3 hPa Este 11.9 km/h 22.2 km/h 43.7% 0.0 mm
18:39 26.1 °C 13.2 °C 1008.2 hPa ESE 12 km/h 22.5 km/h 44.9% 0.0 mm
18:44 25.9 °C 13.1 °C 1008.2 hPa ESE 12.2 km/h 20.9 km/h 45% 0.0 mm
18:49 25.9 °C 13.7 °C 1008.2 hPa ESE 12.5 km/h 25.9 km/h 46.8% 0.0 mm
18:54 25.9 °C 13.4 °C 1008.1 hPa ESE 13 km/h 25.7 km/h 46% 0.0 mm
18:59 25.9 °C 13.3 °C 1008.1 hPa ESE 13 km/h 22.5 km/h 45.6% 0.0 mm
19:04 26.1 °C 12.9 °C 1008.1 hPa ESE 13 km/h 22.5 km/h 44.2% 0.0 mm
19:09 26 °C 12.7 °C 1008.1 hPa ESE 12.6 km/h 22.5 km/h 43.8% 0.0 mm
19:14 25.8 °C 12.4 °C 1008.1 hPa ESE 11.9 km/h 20.9 km/h 43.2% 0.0 mm
19:19 25.8 °C 12.6 °C 1008.1 hPa ESE 12 km/h 22.5 km/h 44% 0.0 mm
19:24 25.8 °C 12.8 °C 1007.9 hPa ESE 12.2 km/h 22.5 km/h 44.5% 0.0 mm
19:29 25.7 °C 12.5 °C 1007.9 hPa ESE 12.5 km/h 24.1 km/h 43.9% 0.0 mm
19:34 25.6 °C 12.5 °C 1007.9 hPa Este 13 km/h 24.1 km/h 44% 0.0 mm
19:39 25.6 °C 12.5 °C 1007.9 hPa ESE 12.6 km/h 22.2 km/h 44% 0.0 mm
19:44 25.5 °C 12.4 °C 1007.9 hPa ESE 11.9 km/h 22.5 km/h 44% 0.0 mm
19:49 25.5 °C 12.3 °C 1007.9 hPa ESE 12.3 km/h 22.5 km/h 44% 0.0 mm
19:54 25.4 °C 12.4 °C 1007.9 hPa Este 13 km/h 22.5 km/h 44.5% 0.0 mm
19:59 25.3 °C 13.2 °C 1007.9 hPa ENE 11.8 km/h 19 km/h 46.9% 0.0 mm
20:04 25.3 °C 13.5 °C 1007.9 hPa NE 10 km/h 19.3 km/h 48% 0.0 mm
20:09 25.3 °C 13.5 °C 1007.9 hPa ENE 9.3 km/h 14.8 km/h 47.9% 0.0 mm
20:14 25.3 °C 13.4 °C 1007.9 hPa NE 8.4 km/h 14.8 km/h 47.7% 0.0 mm
20:19 25.1 °C 14 °C 1008.0 hPa Este 9 km/h 20.4 km/h 50.2% 0.0 mm
20:24 24.7 °C 14.3 °C 1008.0 hPa ENE 10 km/h 20.9 km/h 52.3% 0.0 mm
20:29 24.5 °C 14.5 °C 1008.0 hPa ENE 10.8 km/h 26.2 km/h 53.7% 0.0 mm
20:34 24.3 °C 14.6 °C 1008.1 hPa ENE 12.2 km/h 25.7 km/h 54.8% 0.0 mm
20:39 24.2 °C 14.8 °C 1008.1 hPa ENE 11.8 km/h 18.5 km/h 55.7% 0.0 mm
20:44 23.9 °C 14.9 °C 1008.1 hPa NE 11.1 km/h 22.5 km/h 56.8% 0.0 mm
20:49 23.7 °C 14.8 °C 1008.2 hPa NE 12.1 km/h 24.1 km/h 57.5% 0.0 mm
20:54 23.6 °C 15 °C 1008.2 hPa NE 13.7 km/h 24.1 km/h 58.8% 0.0 mm
20:59 23.4 °C 15.1 °C 1008.2 hPa NE 12.3 km/h 17.7 km/h 59.7% 0.0 mm
21:04 23.2 °C 15.3 °C 1008.4 hPa ENE 10.3 km/h 20.9 km/h 61.2% 0.0 mm
21:09 23 °C 15.4 °C 1008.4 hPa NE 10.3 km/h 22.2 km/h 62.3% 0.0 mm
21:14 22.8 °C 15.4 °C 1008.4 hPa NE 10.3 km/h 22.5 km/h 63.3% 0.0 mm
21:19 22.6 °C 15.4 °C 1008.5 hPa NE 10.6 km/h 22.5 km/h 64% 0.0 mm
21:24 22.4 °C 15.6 °C 1008.5 hPa NE 11.1 km/h 24.1 km/h 65.3% 0.0 mm
21:29 22.2 °C 15.5 °C 1008.5 hPa NE 12.1 km/h 24.1 km/h 66% 0.0 mm
21:34 21.9 °C 15.3 °C 1008.7 hPa NE 13.7 km/h 29.6 km/h 66% 0.0 mm
21:39 21.7 °C 15.4 °C 1008.7 hPa NE 14.6 km/h 29 km/h 67.3% 0.0 mm
21:44 21.5 °C 15.4 °C 1008.7 hPa NE 16.1 km/h 25.7 km/h 68.4% 0.0 mm
21:49 21.3 °C 15.5 °C 1008.8 hPa NE 15.9 km/h 24.1 km/h 69.5% 0.0 mm
21:54 21.2 °C 15.6 °C 1008.8 hPa NE 15.6 km/h 27.8 km/h 70.6% 0.0 mm
21:59 21 °C 15.7 °C 1008.8 hPa NE 15.8 km/h 27.8 km/h 71.8% 0.0 mm
22:04 20.8 °C 15.8 °C 1009.0 hPa NE 16.1 km/h 27.8 km/h 72.7% 0.0 mm
22:09 20.8 °C 15.9 °C 1009.0 hPa NE 15.9 km/h 27.4 km/h 73.6% 0.0 mm
22:14 20.7 °C 15.9 °C 1009.0 hPa NE 15.6 km/h 24.1 km/h 74% 0.0 mm
22:19 20.6 °C 15.9 °C 1009.2 hPa NE 14.9 km/h 24.1 km/h 74.6% 0.0 mm
22:24 20.4 °C 15.8 °C 1009.2 hPa NE 13.7 km/h 20.9 km/h 75% 0.0 mm
22:29 20.3 °C 15.8 °C 1009.2 hPa NE 13.7 km/h 25.9 km/h 75.5% 0.0 mm
22:34 20.3 °C 15.9 °C 1009.4 hPa NE 13.7 km/h 25.9 km/h 76% 0.0 mm
22:39 20.2 °C 16 °C 1009.4 hPa NE 14.6 km/h 25.9 km/h 76.8% 0.0 mm
22:44 20.2 °C 16.1 °C 1009.4 hPa NE 16.1 km/h 25.7 km/h 77% 0.0 mm
22:49 20.2 °C 16.1 °C 1009.7 hPa NE 14.9 km/h 24.1 km/h 77% 0.0 mm
22:54 20.2 °C 16.1 °C 1009.7 hPa NE 13 km/h 20.1 km/h 77.5% 0.0 mm
22:59 20.1 °C 16.2 °C 1009.7 hPa NE 12.2 km/h 20.9 km/h 78% 0.0 mm
23:04 20 °C 16.1 °C 1009.8 hPa NE 11.1 km/h 19.3 km/h 78% 0.0 mm
23:09 19.9 °C 16 °C 1009.8 hPa NE 11.1 km/h 18.5 km/h 78% 0.0 mm
23:14 19.9 °C 15.9 °C 1009.8 hPa NE 11.1 km/h 19.3 km/h 78% 0.0 mm
23:19 19.8 °C 15.9 °C 1009.9 hPa NE 11.1 km/h 19.3 km/h 78% 0.0 mm
23:24 19.7 °C 16 °C 1009.9 hPa NE 11.1 km/h 16.7 km/h 79% 0.0 mm
23:29 19.7 °C 15.9 °C 1009.9 hPa NE 10.8 km/h 18.3 km/h 79% 0.0 mm
23:34 19.6 °C 16 °C 1010.1 hPa NE 10.3 km/h 24.1 km/h 79.7% 0.0 mm
23:39 19.5 °C 16 °C 1010.1 hPa NE 11.3 km/h 24.1 km/h 80% 0.0 mm
23:44 19.4 °C 15.8 °C 1010.1 hPa NE 13 km/h 24.1 km/h 80% 0.0 mm
23:49 19.4 °C 15.8 °C 1010.1 hPa NE 13.7 km/h 22.5 km/h 80% 0.0 mm
23:54 19.4 °C 15.9 °C 1010.1 hPa NE 14.8 km/h 20.9 km/h 80.3% 0.0 mm
23:59 19.3 °C 16 °C 1010.1 hPa NE 13 km/h 17.2 km/h 81% 0.0 mm
Murcia-Puente Tocinos, España
Compliments of Weather Underground - 3 mb

La estación de MeteoMurcia.com, publica sus datos en los siguientes proyectos:

Weather Underground PWS IMURCIAP2 Meteoclimatic www.awekas.at

W3Counter
Web Analytics